sensor_id;sensor_type;location;lat;lon;timestamp;temperature;humidity
20158;DHT22;10239;56.820;24.416;2023-04-01T00:00:50;6.40;99.90
20158;DHT22;10239;56.820;24.416;2023-04-01T00:03:19;6.40;99.90
20158;DHT22;10239;56.820;24.416;2023-04-01T00:05:48;6.50;99.90
20158;DHT22;10239;56.820;24.416;2023-04-01T00:08:17;6.40;99.90
20158;DHT22;10239;56.820;24.416;2023-04-01T00:10:44;6.40;99.90
20158;DHT22;10239;56.820;24.416;2023-04-01T00:13:13;6.50;99.90
20158;DHT22;10239;56.820;24.416;2023-04-01T00:15:41;6.50;99.90
20158;DHT22;10239;56.820;24.416;2023-04-01T00:18:08;6.50;99.90
20158;DHT22;10239;56.820;24.416;2023-04-01T00:20:36;6.40;99.90
20158;DHT22;10239;56.820;24.416;2023-04-01T00:23:04;6.50;99.90
20158;DHT22;10239;56.820;24.416;2023-04-01T00:25:32;6.50;99.90
20158;DHT22;10239;56.820;24.416;2023-04-01T00:28:00;6.50;99.90
20158;DHT22;10239;56.820;24.416;2023-04-01T00:30:28;6.50;99.90
20158;DHT22;10239;56.820;24.416;2023-04-01T00:32:55;6.40;99.90
20158;DHT22;10239;56.820;24.416;2023-04-01T00:35:23;6.50;99.90
20158;DHT22;10239;56.820;24.416;2023-04-01T00:37:50;6.50;99.90
20158;DHT22;10239;56.820;24.416;2023-04-01T00:40:39;6.40;99.90
20158;DHT22;10239;56.820;24.416;2023-04-01T00:43:17;6.40;99.90
20158;DHT22;10239;56.820;24.416;2023-04-01T00:45:48;6.20;99.90
20158;DHT22;10239;56.820;24.416;2023-04-01T00:48:22;6.30;99.90
20158;DHT22;10239;56.820;24.416;2023-04-01T00:50:57;6.20;99.90
20158;DHT22;10239;56.820;24.416;2023-04-01T00:53:25;6.20;99.90
20158;DHT22;10239;56.820;24.416;2023-04-01T00:56:01;6.30;99.90
20158;DHT22;10239;56.820;24.416;2023-04-01T00:58:34;6.20;99.90
20158;DHT22;10239;56.820;24.416;2023-04-01T01:01:03;6.30;99.90
20158;DHT22;10239;56.820;24.416;2023-04-01T01:03:30;6.30;99.90
20158;DHT22;10239;56.820;24.416;2023-04-01T01:37:17;6.30;99.90
20158;DHT22;10239;56.820;24.416;2023-04-01T01:40:03;6.30;99.90
20158;DHT22;10239;56.820;24.416;2023-04-01T01:42:37;6.30;99.90
20158;DHT22;10239;56.820;24.416;2023-04-01T01:45:08;6.10;99.90
20158;DHT22;10239;56.820;24.416;2023-04-01T01:47:37;6.20;99.90
20158;DHT22;10239;56.820;24.416;2023-04-01T01:50:07;6.20;99.90
20158;DHT22;10239;56.820;24.416;2023-04-01T01:52:35;6.10;99.90
20158;DHT22;10239;56.820;24.416;2023-04-01T01:55:22;6.10;99.90
20158;DHT22;10239;56.820;24.416;2023-04-01T01:57:51;6.20;99.90
20158;DHT22;10239;56.820;24.416;2023-04-01T02:00:20;6.10;99.90
20158;DHT22;10239;56.820;24.416;2023-04-01T02:02:48;6.10;99.90
20158;DHT22;10239;56.820;24.416;2023-04-01T02:05:24;6.00;99.90
20158;DHT22;10239;56.820;24.416;2023-04-01T02:11:01;6.00;99.90
20158;DHT22;10239;56.820;24.416;2023-04-01T02:16:49;5.80;99.90
20158;DHT22;10239;56.820;24.416;2023-04-01T02:19:18;5.90;99.90
20158;DHT22;10239;56.820;24.416;2023-04-01T02:21:55;5.90;99.90
20158;DHT22;10239;56.820;24.416;2023-04-01T02:24:25;6.00;99.90
20158;DHT22;10239;56.820;24.416;2023-04-01T02:26:53;5.90;99.90
20158;DHT22;10239;56.820;24.416;2023-04-01T02:29:23;5.80;99.90
20158;DHT22;10239;56.820;24.416;2023-04-01T02:31:55;5.90;99.90
20158;DHT22;10239;56.820;24.416;2023-04-01T02:34:24;5.90;99.90
20158;DHT22;10239;56.820;24.416;2023-04-01T02:36:52;5.90;99.90
20158;DHT22;10239;56.820;24.416;2023-04-01T02:39:21;5.90;99.90
20158;DHT22;10239;56.820;24.416;2023-04-01T02:41:52;5.80;99.90
20158;DHT22;10239;56.820;24.416;2023-04-01T02:44:20;5.70;99.90
20158;DHT22;10239;56.820;24.416;2023-04-01T02:46:51;5.70;99.90
20158;DHT22;10239;56.820;24.416;2023-04-01T02:49:19;5.60;99.90
20158;DHT22;10239;56.820;24.416;2023-04-01T02:51:47;5.60;99.90
20158;DHT22;10239;56.820;24.416;2023-04-01T02:54:14;5.60;99.90
20158;DHT22;10239;56.820;24.416;2023-04-01T02:56:42;5.70;99.90
20158;DHT22;10239;56.820;24.416;2023-04-01T02:59:10;5.80;99.90
20158;DHT22;10239;56.820;24.416;2023-04-01T03:01:38;5.70;99.90
20158;DHT22;10239;56.820;24.416;2023-04-01T03:04:05;5.70;99.90
20158;DHT22;10239;56.820;24.416;2023-04-01T03:06:33;5.70;99.90
20158;DHT22;10239;56.820;24.416;2023-04-01T03:09:01;5.80;99.90
20158;DHT22;10239;56.820;24.416;2023-04-01T03:11:30;5.80;99.90
20158;DHT22;10239;56.820;24.416;2023-04-01T03:13:57;5.70;99.90
20158;DHT22;10239;56.820;24.416;2023-04-01T03:16:25;5.70;99.90
20158;DHT22;10239;56.820;24.416;2023-04-01T03:18:53;5.60;99.90
20158;DHT22;10239;56.820;24.416;2023-04-01T03:21:24;5.70;99.90
20158;DHT22;10239;56.820;24.416;2023-04-01T03:23:52;5.70;99.90
20158;DHT22;10239;56.820;24.416;2023-04-01T03:26:20;5.70;99.90
20158;DHT22;10239;56.820;24.416;2023-04-01T03:28:48;5.60;99.90
20158;DHT22;10239;56.820;24.416;2023-04-01T03:31:16;5.60;99.90
20158;DHT22;10239;56.820;24.416;2023-04-01T03:33:49;5.50;99.90
20158;DHT22;10239;56.820;24.416;2023-04-01T03:36:17;5.50;99.90
20158;DHT22;10239;56.820;24.416;2023-04-01T03:38:46;5.50;99.90
20158;DHT22;10239;56.820;24.416;2023-04-01T03:41:19;5.40;99.90
20158;DHT22;10239;56.820;24.416;2023-04-01T03:43:47;5.40;99.90
20158;DHT22;10239;56.820;24.416;2023-04-01T03:46:18;5.40;99.90
20158;DHT22;10239;56.820;24.416;2023-04-01T03:48:47;5.30;99.90
20158;DHT22;10239;56.820;24.416;2023-04-01T03:51:14;5.40;99.90
20158;DHT22;10239;56.820;24.416;2023-04-01T03:53:42;5.30;99.90
20158;DHT22;10239;56.820;24.416;2023-04-01T03:56:10;5.30;99.90
20158;DHT22;10239;56.820;24.416;2023-04-01T03:58:38;5.30;99.90
20158;DHT22;10239;56.820;24.416;2023-04-01T04:01:16;5.30;99.90
20158;DHT22;10239;56.820;24.416;2023-04-01T04:03:44;5.30;99.90
20158;DHT22;10239;56.820;24.416;2023-04-01T04:06:14;5.30;99.90
20158;DHT22;10239;56.820;24.416;2023-04-01T04:08:42;5.30;99.90
20158;DHT22;10239;56.820;24.416;2023-04-01T04:11:10;5.20;99.90
20158;DHT22;10239;56.820;24.416;2023-04-01T04:13:41;5.30;99.90
20158;DHT22;10239;56.820;24.416;2023-04-01T04:16:10;5.30;99.90
20158;DHT22;10239;56.820;24.416;2023-04-01T04:18:42;5.30;99.90
20158;DHT22;10239;56.820;24.416;2023-04-01T04:21:14;5.30;99.90
20158;DHT22;10239;56.820;24.416;2023-04-01T04:23:43;5.30;99.90
20158;DHT22;10239;56.820;24.416;2023-04-01T04:26:14;5.30;99.90
20158;DHT22;10239;56.820;24.416;2023-04-01T04:28:46;5.40;99.90
20158;DHT22;10239;56.820;24.416;2023-04-01T04:31:24;5.40;99.90
20158;DHT22;10239;56.820;24.416;2023-04-01T04:33:54;5.40;99.90
20158;DHT22;10239;56.820;24.416;2023-04-01T04:36:22;5.40;99.90
20158;DHT22;10239;56.820;24.416;2023-04-01T04:38:51;5.30;99.90
20158;DHT22;10239;56.820;24.416;2023-04-01T04:41:19;5.30;99.90
20158;DHT22;10239;56.820;24.416;2023-04-01T04:43:54;5.40;99.90
20158;DHT22;10239;56.820;24.416;2023-04-01T04:46:24;5.40;99.90
20158;DHT22;10239;56.820;24.416;2023-04-01T04:49:09;5.40;99.90
20158;DHT22;10239;56.820;24.416;2023-04-01T04:51:37;5.40;99.90
20158;DHT22;10239;56.820;24.416;2023-04-01T04:54:06;5.30;99.90
20158;DHT22;10239;56.820;24.416;2023-04-01T04:56:57;5.40;99.90
20158;DHT22;10239;56.820;24.416;2023-04-01T04:59:27;5.50;99.90
20158;DHT22;10239;56.820;24.416;2023-04-01T05:02:00;5.50;99.90
20158;DHT22;10239;56.820;24.416;2023-04-01T05:04:28;5.50;99.90
20158;DHT22;10239;56.820;24.416;2023-04-01T05:06:56;5.50;99.90
20158;DHT22;10239;56.820;24.416;2023-04-01T05:09:24;5.50;99.90
20158;DHT22;10239;56.820;24.416;2023-04-01T05:11:51;5.50;99.90
20158;DHT22;10239;56.820;24.416;2023-04-01T05:14:20;5.40;99.90
20158;DHT22;10239;56.820;24.416;2023-04-01T05:16:56;5.30;99.90
20158;DHT22;10239;56.820;24.416;2023-04-01T05:19:24;5.30;99.90
20158;DHT22;10239;56.820;24.416;2023-04-01T05:21:52;5.30;99.90
20158;DHT22;10239;56.820;24.416;2023-04-01T05:24:20;5.30;99.90
20158;DHT22;10239;56.820;24.416;2023-04-01T05:26:49;5.40;99.90
20158;DHT22;10239;56.820;24.416;2023-04-01T05:29:17;5.40;99.90
20158;DHT22;10239;56.820;24.416;2023-04-01T05:31:47;5.40;99.90
20158;DHT22;10239;56.820;24.416;2023-04-01T05:34:15;5.50;99.90
20158;DHT22;10239;56.820;24.416;2023-04-01T05:36:44;5.40;99.90
20158;DHT22;10239;56.820;24.416;2023-04-01T05:39:12;5.40;99.90
20158;DHT22;10239;56.820;24.416;2023-04-01T05:41:40;5.40;99.90
20158;DHT22;10239;56.820;24.416;2023-04-01T05:44:11;5.40;99.90
20158;DHT22;10239;56.820;24.416;2023-04-01T05:46:39;5.50;99.90
20158;DHT22;10239;56.820;24.416;2023-04-01T05:49:14;5.60;99.90
20158;DHT22;10239;56.820;24.416;2023-04-01T05:51:42;5.60;99.90
20158;DHT22;10239;56.820;24.416;2023-04-01T05:54:10;5.60;99.90
20158;DHT22;10239;56.820;24.416;2023-04-01T05:56:38;5.50;99.90
20158;DHT22;10239;56.820;24.416;2023-04-01T05:59:09;5.60;99.90
20158;DHT22;10239;56.820;24.416;2023-04-01T06:01:37;5.40;99.90
20158;DHT22;10239;56.820;24.416;2023-04-01T06:04:05;5.40;99.90
20158;DHT22;10239;56.820;24.416;2023-04-01T06:06:34;5.40;99.90
20158;DHT22;10239;56.820;24.416;2023-04-01T06:09:19;5.40;99.90
20158;DHT22;10239;56.820;24.416;2023-04-01T06:14:47;5.50;99.90
20158;DHT22;10239;56.820;24.416;2023-04-01T06:23:19;5.70;99.90
20158;DHT22;10239;56.820;24.416;2023-04-01T06:26:13;5.70;99.90
20158;DHT22;10239;56.820;24.416;2023-04-01T06:31:16;5.80;99.90
20158;DHT22;10239;56.820;24.416;2023-04-01T06:34:06;5.90;99.90
20158;DHT22;10239;56.820;24.416;2023-04-01T06:39:41;5.90;99.90
20158;DHT22;10239;56.820;24.416;2023-04-01T06:48:10;6.00;99.90
20158;DHT22;10239;56.820;24.416;2023-04-01T06:51:16;5.80;99.90
20158;DHT22;10239;56.820;24.416;2023-04-01T06:54:17;5.90;99.90
20158;DHT22;10239;56.820;24.416;2023-04-01T06:57:28;5.90;99.90
20158;DHT22;10239;56.820;24.416;2023-04-01T07:00:00;5.90;99.90
20158;DHT22;10239;56.820;24.416;2023-04-01T07:02:41;5.90;99.90
20158;DHT22;10239;56.820;24.416;2023-04-01T07:05:11;5.90;99.90
20158;DHT22;10239;56.820;24.416;2023-04-01T07:07:48;5.90;99.90
20158;DHT22;10239;56.820;24.416;2023-04-01T07:10:22;5.90;99.90
20158;DHT22;10239;56.820;24.416;2023-04-01T07:13:19;5.90;99.90
20158;DHT22;10239;56.820;24.416;2023-04-01T07:16:07;5.90;99.90
20158;DHT22;10239;56.820;24.416;2023-04-01T07:18:44;5.90;99.90
20158;DHT22;10239;56.820;24.416;2023-04-01T07:24:37;5.80;99.90
20158;DHT22;10239;56.820;24.416;2023-04-01T07:27:13;5.90;99.90
20158;DHT22;10239;56.820;24.416;2023-04-01T07:29:43;5.80;99.90
20158;DHT22;10239;56.820;24.416;2023-04-01T07:32:51;5.90;99.90
20158;DHT22;10239;56.820;24.416;2023-04-01T07:35:30;6.00;99.90
20158;DHT22;10239;56.820;24.416;2023-04-01T07:38:20;6.00;99.90
20158;DHT22;10239;56.820;24.416;2023-04-01T07:52:05;6.30;99.90
20158;DHT22;10239;56.820;24.416;2023-04-01T07:57:50;6.40;99.90
20158;DHT22;10239;56.820;24.416;2023-04-01T08:06:05;6.40;99.90
20158;DHT22;10239;56.820;24.416;2023-04-01T08:08:55;6.40;99.90
20158;DHT22;10239;56.820;24.416;2023-04-01T08:15:07;6.30;99.90
20158;DHT22;10239;56.820;24.416;2023-04-01T08:18:37;6.10;99.90
20158;DHT22;10239;56.820;24.416;2023-04-01T08:21:17;6.10;99.90
20158;DHT22;10239;56.820;24.416;2023-04-01T08:23:52;6.30;99.90
20158;DHT22;10239;56.820;24.416;2023-04-01T08:26:39;6.40;99.90
20158;DHT22;10239;56.820;24.416;2023-04-01T08:29:17;6.40;99.90
20158;DHT22;10239;56.820;24.416;2023-04-01T08:31:50;6.50;99.90
20158;DHT22;10239;56.820;24.416;2023-04-01T08:34:28;6.50;99.90
20158;DHT22;10239;56.820;24.416;2023-04-01T08:37:12;6.60;99.90
20158;DHT22;10239;56.820;24.416;2023-04-01T08:39:46;6.50;99.90
20158;DHT22;10239;56.820;24.416;2023-04-01T08:42:41;6.30;99.90
20158;DHT22;10239;56.820;24.416;2023-04-01T08:51:36;6.60;99.90
20158;DHT22;10239;56.820;24.416;2023-04-01T08:54:34;6.60;99.90
20158;DHT22;10239;56.820;24.416;2023-04-01T08:58:08;6.70;99.90
20158;DHT22;10239;56.820;24.416;2023-04-01T09:00:42;6.70;99.90
20158;DHT22;10239;56.820;24.416;2023-04-01T09:03:41;6.50;99.90
20158;DHT22;10239;56.820;24.416;2023-04-01T09:07:03;6.30;99.90
20158;DHT22;10239;56.820;24.416;2023-04-01T09:12:28;6.10;99.90
20158;DHT22;10239;56.820;24.416;2023-04-01T09:27:03;6.30;99.90
20158;DHT22;10239;56.820;24.416;2023-04-01T09:38:23;6.70;99.90
20158;DHT22;10239;56.820;24.416;2023-04-01T09:41:02;6.80;99.90
20158;DHT22;10239;56.820;24.416;2023-04-01T09:44:02;6.80;99.90
20158;DHT22;10239;56.820;24.416;2023-04-01T10:05:01;6.50;99.90
20158;DHT22;10239;56.820;24.416;2023-04-01T10:16:52;6.30;99.90
20158;DHT22;10239;56.820;24.416;2023-04-01T10:28:19;6.40;99.90
20158;DHT22;10239;56.820;24.416;2023-04-01T10:43:04;6.60;99.90
20158;DHT22;10239;56.820;24.416;2023-04-01T10:46:29;6.60;99.90
20158;DHT22;10239;56.820;24.416;2023-04-01T11:05:18;6.50;99.90
20158;DHT22;10239;56.820;24.416;2023-04-01T11:14:27;6.30;99.90
20158;DHT22;10239;56.820;24.416;2023-04-01T11:34:16;5.70;99.90
20158;DHT22;10239;56.820;24.416;2023-04-01T11:40:38;5.80;99.90
20158;DHT22;10239;56.820;24.416;2023-04-01T11:43:54;5.80;99.90
20158;DHT22;10239;56.820;24.416;2023-04-01T11:58:36;5.90;99.90
20158;DHT22;10239;56.820;24.416;2023-04-01T12:20:36;6.30;99.90
20158;DHT22;10239;56.820;24.416;2023-04-01T12:26:24;6.40;99.90
20158;DHT22;10239;56.820;24.416;2023-04-01T12:35:25;6.80;99.90
20158;DHT22;10239;56.820;24.416;2023-04-01T12:46:39;6.80;99.90
20158;DHT22;10239;56.820;24.416;2023-04-01T12:52:13;6.80;99.90
20158;DHT22;10239;56.820;24.416;2023-04-01T13:00:30;7.00;99.90
20158;DHT22;10239;56.820;24.416;2023-04-01T13:03:20;7.00;99.90
20158;DHT22;10239;56.820;24.416;2023-04-01T13:14:33;6.60;99.90
20158;DHT22;10239;56.820;24.416;2023-04-01T13:17:45;6.60;99.90
20158;DHT22;10239;56.820;24.416;2023-04-01T13:29:23;6.70;99.90
20158;DHT22;10239;56.820;24.416;2023-04-01T13:35:18;6.60;99.90
20158;DHT22;10239;56.820;24.416;2023-04-01T13:38:12;6.60;99.90
20158;DHT22;10239;56.820;24.416;2023-04-01T13:43:37;6.40;99.90
20158;DHT22;10239;56.820;24.416;2023-04-01T14:03:09;6.70;99.90
20158;DHT22;10239;56.820;24.416;2023-04-01T14:06:12;6.70;99.90
20158;DHT22;10239;56.820;24.416;2023-04-01T14:17:07;6.60;99.90
20158;DHT22;10239;56.820;24.416;2023-04-01T14:49:05;6.50;99.90
20158;DHT22;10239;56.820;24.416;2023-04-01T14:51:41;6.40;99.90
20158;DHT22;10239;56.820;24.416;2023-04-01T14:54:34;6.20;99.90
20158;DHT22;10239;56.820;24.416;2023-04-01T14:57:11;6.20;99.90
20158;DHT22;10239;56.820;24.416;2023-04-01T14:59:49;6.30;99.90
20158;DHT22;10239;56.820;24.416;2023-04-01T15:11:05;6.10;99.90
20158;DHT22;10239;56.820;24.416;2023-04-01T15:20:05;6.00;99.90
20158;DHT22;10239;56.820;24.416;2023-04-01T15:28:20;6.00;99.90
20158;DHT22;10239;56.820;24.416;2023-04-01T15:36:13;5.80;99.90
20158;DHT22;10239;56.820;24.416;2023-04-01T15:39:01;5.80;99.90
20158;DHT22;10239;56.820;24.416;2023-04-01T15:50:20;5.80;99.90
20158;DHT22;10239;56.820;24.416;2023-04-01T15:53:05;5.60;99.90
20158;DHT22;10239;56.820;24.416;2023-04-01T15:59:09;5.70;99.90
20158;DHT22;10239;56.820;24.416;2023-04-01T16:04:39;5.70;99.90
20158;DHT22;10239;56.820;24.416;2023-04-01T16:07:27;5.70;99.90
20158;DHT22;10239;56.820;24.416;2023-04-01T16:13:20;5.60;99.90
20158;DHT22;10239;56.820;24.416;2023-04-01T16:22:02;5.60;99.90
20158;DHT22;10239;56.820;24.416;2023-04-01T16:27:16;5.60;99.90
20158;DHT22;10239;56.820;24.416;2023-04-01T16:32:51;5.50;99.90
20158;DHT22;10239;56.820;24.416;2023-04-01T16:36:00;5.50;99.90
20158;DHT22;10239;56.820;24.416;2023-04-01T16:43:47;5.30;99.90
20158;DHT22;10239;56.820;24.416;2023-04-01T16:46:46;5.40;99.90
20158;DHT22;10239;56.820;24.416;2023-04-01T16:49:24;5.40;99.90
20158;DHT22;10239;56.820;24.416;2023-04-01T16:57:43;5.30;99.90
20158;DHT22;10239;56.820;24.416;2023-04-01T17:00:30;5.30;99.90
20158;DHT22;10239;56.820;24.416;2023-04-01T17:06:00;5.30;99.90
20158;DHT22;10239;56.820;24.416;2023-04-01T17:11:35;5.30;99.90
20158;DHT22;10239;56.820;24.416;2023-04-01T17:25:37;5.10;99.90
20158;DHT22;10239;56.820;24.416;2023-04-01T17:28:31;5.00;99.90
20158;DHT22;10239;56.820;24.416;2023-04-01T17:34:09;4.90;99.90
20158;DHT22;10239;56.820;24.416;2023-04-01T17:49:16;4.80;99.90
20158;DHT22;10239;56.820;24.416;2023-04-01T17:54:58;4.80;99.90
20158;DHT22;10239;56.820;24.416;2023-04-01T17:57:46;4.50;99.90
20158;DHT22;10239;56.820;24.416;2023-04-01T18:08:59;4.50;99.90
20158;DHT22;10239;56.820;24.416;2023-04-01T18:11:38;4.50;99.90
20158;DHT22;10239;56.820;24.416;2023-04-01T18:27:32;4.40;99.90
20158;DHT22;10239;56.820;24.416;2023-04-01T18:38:38;4.40;99.90
20158;DHT22;10239;56.820;24.416;2023-04-01T18:41:42;4.40;99.90
20158;DHT22;10239;56.820;24.416;2023-04-01T18:47:34;4.40;99.90
20158;DHT22;10239;56.820;24.416;2023-04-01T18:50:27;4.30;99.90
20158;DHT22;10239;56.820;24.416;2023-04-01T18:55:59;4.40;99.90
20158;DHT22;10239;56.820;24.416;2023-04-01T18:58:46;4.30;99.90
20158;DHT22;10239;56.820;24.416;2023-04-01T19:01:33;4.40;99.90
20158;DHT22;10239;56.820;24.416;2023-04-01T19:04:28;4.30;99.90
20158;DHT22;10239;56.820;24.416;2023-04-01T19:07:21;4.40;99.90
20158;DHT22;10239;56.820;24.416;2023-04-01T19:09:50;4.30;99.90
20158;DHT22;10239;56.820;24.416;2023-04-01T19:15:38;4.40;99.90
20158;DHT22;10239;56.820;24.416;2023-04-01T19:32:42;4.10;99.90
20158;DHT22;10239;56.820;24.416;2023-04-01T19:40:55;4.00;99.90
20158;DHT22;10239;56.820;24.416;2023-04-01T19:48:39;4.00;99.90
20158;DHT22;10239;56.820;24.416;2023-04-01T19:51:29;4.10;99.90
20158;DHT22;10239;56.820;24.416;2023-04-01T19:59:41;4.10;99.90
20158;DHT22;10239;56.820;24.416;2023-04-01T20:04:46;4.00;99.90
20158;DHT22;10239;56.820;24.416;2023-04-01T20:07:31;3.90;99.90
20158;DHT22;10239;56.820;24.416;2023-04-01T20:10:16;4.10;99.90
20158;DHT22;10239;56.820;24.416;2023-04-01T20:16:15;3.90;99.90
20158;DHT22;10239;56.820;24.416;2023-04-01T20:18:59;3.90;99.90
20158;DHT22;10239;56.820;24.416;2023-04-01T20:24:49;3.80;99.90
20158;DHT22;10239;56.820;24.416;2023-04-01T20:41:12;3.80;99.90
20158;DHT22;10239;56.820;24.416;2023-04-01T20:46:22;3.90;99.90
20158;DHT22;10239;56.820;24.416;2023-04-01T20:48:54;3.80;99.90
20158;DHT22;10239;56.820;24.416;2023-04-01T20:51:35;3.80;99.90
20158;DHT22;10239;56.820;24.416;2023-04-01T20:54:22;3.90;99.90
20158;DHT22;10239;56.820;24.416;2023-04-01T21:00:22;3.90;99.90
20158;DHT22;10239;56.820;24.416;2023-04-01T21:05:28;3.90;99.90
20158;DHT22;10239;56.820;24.416;2023-04-01T21:08:28;3.90;99.90
20158;DHT22;10239;56.820;24.416;2023-04-01T21:14:14;3.80;99.90
20158;DHT22;10239;56.820;24.416;2023-04-01T21:23:31;3.80;99.90
20158;DHT22;10239;56.820;24.416;2023-04-01T21:26:19;3.90;99.90
20158;DHT22;10239;56.820;24.416;2023-04-01T21:40:17;4.00;99.90
20158;DHT22;10239;56.820;24.416;2023-04-01T21:46:12;3.90;99.90
20158;DHT22;10239;56.820;24.416;2023-04-01T21:52:10;4.00;99.90
20158;DHT22;10239;56.820;24.416;2023-04-01T21:54:56;3.90;99.90
20158;DHT22;10239;56.820;24.416;2023-04-01T22:06:23;3.70;99.90
20158;DHT22;10239;56.820;24.416;2023-04-01T22:08:55;3.70;99.90
20158;DHT22;10239;56.820;24.416;2023-04-01T22:16:57;3.90;99.90
20158;DHT22;10239;56.820;24.416;2023-04-01T22:19:39;3.80;99.90
20158;DHT22;10239;56.820;24.416;2023-04-01T22:22:55;3.80;99.90
20158;DHT22;10239;56.820;24.416;2023-04-01T22:30:34;3.90;99.90
20158;DHT22;10239;56.820;24.416;2023-04-01T22:42:47;3.90;99.90
20158;DHT22;10239;56.820;24.416;2023-04-01T22:51:04;3.70;99.90
20158;DHT22;10239;56.820;24.416;2023-04-01T22:53:48;3.70;99.90
20158;DHT22;10239;56.820;24.416;2023-04-01T22:56:44;3.70;99.90
20158;DHT22;10239;56.820;24.416;2023-04-01T22:59:16;3.70;99.90
20158;DHT22;10239;56.820;24.416;2023-04-01T23:01:53;3.60;99.90
20158;DHT22;10239;56.820;24.416;2023-04-01T23:04:31;3.70;99.90
20158;DHT22;10239;56.820;24.416;2023-04-01T23:07:04;3.70;99.90
20158;DHT22;10239;56.820;24.416;2023-04-01T23:09:37;3.70;99.90
20158;DHT22;10239;56.820;24.416;2023-04-01T23:12:12;3.70;99.90
20158;DHT22;10239;56.820;24.416;2023-04-01T23:14:58;3.70;99.90
20158;DHT22;10239;56.820;24.416;2023-04-01T23:17:58;3.70;99.90
20158;DHT22;10239;56.820;24.416;2023-04-01T23:28:59;3.70;99.90
20158;DHT22;10239;56.820;24.416;2023-04-01T23:31:36;3.80;99.90
20158;DHT22;10239;56.820;24.416;2023-04-01T23:34:27;3.80;99.90
20158;DHT22;10239;56.820;24.416;2023-04-01T23:37:02;3.80;99.90
20158;DHT22;10239;56.820;24.416;2023-04-01T23:39:35;3.90;99.90
20158;DHT22;10239;56.820;24.416;2023-04-01T23:44:43;3.80;99.90
20158;DHT22;10239;56.820;24.416;2023-04-01T23:47:21;3.80;99.90
20158;DHT22;10239;56.820;24.416;2023-04-01T23:50:14;3.80;99.90
20158;DHT22;10239;56.820;24.416;2023-04-01T23:52:48;3.80;99.90
